createdAt,value
2017-05-30T00:01:03.619Z,22.30
2017-05-30T00:03:31.870Z,22.30
2017-05-30T00:06:00.107Z,22.30
2017-05-30T00:08:28.339Z,22.30
2017-05-30T00:10:56.574Z,22.30
2017-05-30T00:13:24.807Z,22.00
2017-05-30T00:15:53.050Z,21.50
2017-05-30T00:21:14.830Z,20.90
2017-05-30T00:23:43.050Z,20.50
2017-05-30T00:26:11.298Z,20.60
2017-05-30T00:28:39.534Z,20.60
2017-05-30T00:31:07.770Z,20.60
2017-05-30T00:33:36.003Z,20.60
2017-05-30T00:36:04.247Z,20.50
2017-05-30T00:38:32.474Z,20.50
2017-05-30T00:41:00.713Z,20.40
2017-05-30T00:43:28.951Z,20.30
2017-05-30T00:45:57.216Z,20.30
2017-05-30T00:48:25.459Z,20.20
2017-05-30T00:50:53.669Z,19.90
2017-05-30T00:53:21.908Z,19.40
2017-05-30T00:55:50.146Z,19.00
2017-05-30T00:58:18.382Z,18.60
2017-05-30T01:00:46.600Z,18.60
2017-05-30T01:03:14.843Z,18.60
2017-05-30T01:05:43.089Z,18.70
2017-05-30T01:08:11.336Z,18.50
2017-05-30T01:10:39.562Z,18.60
2017-05-30T01:13:07.046Z,18.50
2017-05-30T01:15:35.274Z,18.60
2017-05-30T01:29:35.848Z,18.70
2017-05-30T01:32:04.070Z,18.70
2017-05-30T01:34:32.313Z,18.90
2017-05-30T01:37:00.537Z,19.40
2017-05-30T01:39:28.789Z,19.40
2017-05-30T01:41:56.250Z,19.40
2017-05-30T01:44:24.478Z,18.20
2017-05-30T01:46:52.711Z,18.00
2017-05-30T01:49:20.938Z,18.30
2017-05-30T01:51:49.188Z,18.70
2017-05-30T01:54:17.406Z,19.30
2017-05-30T01:56:45.656Z,19.50
2017-05-30T01:59:13.878Z,19.70
2017-05-30T02:01:42.120Z,19.80
2017-05-30T02:04:10.347Z,19.80
2017-05-30T02:06:38.941Z,19.70
2017-05-30T02:09:07.164Z,19.50
2017-05-30T02:11:35.401Z,19.40
2017-05-30T02:14:03.630Z,19.70
2017-05-30T02:16:31.883Z,20.00
2017-05-30T02:19:00.112Z,20.00
2017-05-30T02:21:28.347Z,20.10
2017-05-30T02:23:56.590Z,19.90
2017-05-30T02:26:24.818Z,19.90
2017-05-30T02:28:53.058Z,19.60
2017-05-30T02:31:21.284Z,19.40
2017-05-30T02:33:49.521Z,19.40
2017-05-30T02:36:17.745Z,19.40
2017-05-30T02:38:45.990Z,19.60
2017-05-30T02:41:14.219Z,19.60
2017-05-30T02:43:42.453Z,19.80
2017-05-30T02:46:10.680Z,19.70
2017-05-30T02:48:39.186Z,19.70
2017-05-30T02:51:07.411Z,19.90
2017-05-30T02:53:35.635Z,20.20
2017-05-30T02:56:23.386Z,20.40
2017-05-30T02:58:51.610Z,20.30
2017-05-30T03:01:19.835Z,20.30
2017-05-30T03:03:48.074Z,20.40
2017-05-30T03:06:16.299Z,20.20
2017-05-30T03:08:44.526Z,19.80
2017-05-30T03:11:12.762Z,19.80
2017-05-30T03:13:40.989Z,19.60
2017-05-30T03:16:09.217Z,19.60
2017-05-30T03:21:30.930Z,19.80
2017-05-30T03:23:59.181Z,20.00
2017-05-30T03:26:27.402Z,20.00
2017-05-30T03:28:55.622Z,19.90
2017-05-30T03:31:23.878Z,19.40
2017-05-30T03:33:52.106Z,19.10
2017-05-30T03:36:20.333Z,18.90
2017-05-30T03:38:48.571Z,18.90
2017-05-30T03:41:16.797Z,19.00
2017-05-30T03:43:45.072Z,19.20
2017-05-30T03:46:19.159Z,19.40
2017-05-30T03:48:47.422Z,19.50
2017-05-30T03:51:15.645Z,19.50
2017-05-30T03:53:43.866Z,19.50
2017-05-30T04:13:31.610Z,19.10
2017-05-30T04:15:59.850Z,19.00
2017-05-30T04:18:48.941Z,19.00
2017-05-30T04:21:17.209Z,19.00
2017-05-30T04:23:45.450Z,19.20
2017-05-30T04:32:19.142Z,19.10
2017-05-30T04:34:47.374Z,18.70
2017-05-30T04:37:15.619Z,18.90
2017-05-30T04:39:43.843Z,19.10
2017-05-30T04:42:12.080Z,19.30
2017-05-30T04:44:40.318Z,19.60
2017-05-30T04:47:08.543Z,19.90
2017-05-30T04:49:36.795Z,20.10
2017-05-30T04:52:05.003Z,20.30
2017-05-30T04:54:33.245Z,20.40
2017-05-30T04:57:01.471Z,20.60
2017-05-30T04:59:29.717Z,20.70
2017-05-30T05:01:57.938Z,20.60
2017-05-30T05:04:26.406Z,20.80
2017-05-30T05:06:54.649Z,20.90
2017-05-30T05:09:22.908Z,21.20
2017-05-30T05:11:51.129Z,21.50
2017-05-30T05:14:19.365Z,21.80
2017-05-30T05:16:47.602Z,22.10
2017-05-30T05:33:48.231Z,23.30
2017-05-30T05:36:16.478Z,24.40
2017-05-30T05:38:44.711Z,24.80
2017-05-30T05:41:12.954Z,25.40
2017-05-30T05:43:41.190Z,25.70
2017-05-30T05:46:09.453Z,26.30
2017-05-30T05:48:37.689Z,26.60
2017-05-30T05:51:05.924Z,26.80
2017-05-30T05:53:34.178Z,27.00
2017-05-30T05:56:02.414Z,27.40
2017-05-30T05:58:30.666Z,27.80
2017-05-30T06:00:58.907Z,27.80
2017-05-30T06:03:27.162Z,27.90
2017-05-30T06:05:55.391Z,27.70
2017-05-30T06:08:23.646Z,27.60
2017-05-30T06:10:51.874Z,27.50
2017-05-30T06:13:20.121Z,27.40
2017-05-30T06:15:48.374Z,27.50
2017-05-30T06:18:16.605Z,27.20
2017-05-30T06:20:44.854Z,27.40
2017-05-30T06:23:13.085Z,27.60
2017-05-30T06:25:41.333Z,28.00
2017-05-30T06:28:09.574Z,28.60
2017-05-30T06:30:37.818Z,28.80
2017-05-30T06:33:06.054Z,29.10
2017-05-30T06:35:34.297Z,28.90
2017-05-30T06:38:02.546Z,28.40
2017-05-30T06:40:30.786Z,28.10
2017-05-30T06:42:59.044Z,27.90
2017-05-30T06:45:27.281Z,27.70
2017-05-30T06:47:55.527Z,27.40
2017-05-30T06:50:23.756Z,27.60
2017-05-30T06:52:52.000Z,27.70
2017-05-30T06:55:20.233Z,27.90
2017-05-30T06:57:48.478Z,28.20
2017-05-30T07:00:16.717Z,28.80
2017-05-30T07:02:44.978Z,29.20
2017-05-30T07:05:13.209Z,29.30
2017-05-30T07:07:41.438Z,29.30
2017-05-30T07:10:09.687Z,29.70
2017-05-30T07:12:37.918Z,30.10
2017-05-30T07:15:06.175Z,30.20
2017-05-30T07:17:34.406Z,30.30
2017-05-30T07:20:02.650Z,30.20
2017-05-30T07:22:30.942Z,30.40
2017-05-30T07:24:59.143Z,30.40
2017-05-30T07:27:27.378Z,30.50
2017-05-30T07:29:55.630Z,30.70
2017-05-30T07:32:23.862Z,31.10
2017-05-30T07:34:52.099Z,31.30
2017-05-30T07:37:20.351Z,31.70
2017-05-30T07:39:48.577Z,32.10
2017-05-30T07:42:16.818Z,32.50
2017-05-30T07:44:45.051Z,33.10
2017-05-30T07:47:13.299Z,33.70
2017-05-30T07:49:41.529Z,34.20
2017-05-30T07:52:09.774Z,34.50
2017-05-30T07:54:38.021Z,34.50
2017-05-30T07:57:06.270Z,35.10
2017-05-30T07:59:34.501Z,35.20
2017-05-30T08:02:02.739Z,35.00
2017-05-30T08:04:30.986Z,34.80
2017-05-30T08:06:59.224Z,34.10
2017-05-30T08:09:27.469Z,33.80
2017-05-30T08:11:55.702Z,33.50
2017-05-30T08:14:23.951Z,33.30
2017-05-30T08:16:52.190Z,33.00
2017-05-30T08:19:20.437Z,32.80
2017-05-30T08:21:48.668Z,32.70
2017-05-30T08:24:16.906Z,32.70
2017-05-30T08:26:45.149Z,32.40
2017-05-30T08:29:13.402Z,32.50
2017-05-30T08:31:41.633Z,32.50
2017-05-30T08:34:09.885Z,32.30
2017-05-30T08:36:38.119Z,31.90
2017-05-30T08:39:06.362Z,31.80
2017-05-30T08:41:34.602Z,31.20
2017-05-30T08:44:02.830Z,31.20
2017-05-30T08:46:31.071Z,31.40
2017-05-30T08:48:59.305Z,31.60
2017-05-30T08:51:27.553Z,31.80
2017-05-30T08:53:55.790Z,31.30
2017-05-30T08:56:24.036Z,30.80
2017-05-30T08:58:52.266Z,30.50
2017-05-30T09:01:20.523Z,30.00
2017-05-30T09:03:47.991Z,30.00
2017-05-30T09:06:16.237Z,30.60
2017-05-30T09:08:44.474Z,31.00
2017-05-30T09:11:12.737Z,30.90
2017-05-30T09:13:40.979Z,31.50
2017-05-30T09:16:09.206Z,32.20
2017-05-30T09:18:37.447Z,32.90
2017-05-30T09:21:05.686Z,33.80
2017-05-30T09:23:33.934Z,34.80
2017-05-30T09:26:02.162Z,35.40
2017-05-30T09:28:30.414Z,35.20
2017-05-30T09:30:58.647Z,35.40
2017-05-30T09:33:26.906Z,35.50
2017-05-30T09:35:55.137Z,35.60
2017-05-30T09:38:23.390Z,35.60
2017-05-30T09:40:51.628Z,34.80
2017-05-30T09:43:19.871Z,34.10
2017-05-30T09:45:48.110Z,33.30
2017-05-30T09:48:16.338Z,33.00
2017-05-30T09:50:44.595Z,33.30
2017-05-30T09:53:12.826Z,33.60
2017-05-30T09:55:41.078Z,34.20
2017-05-30T09:58:09.313Z,34.10
2017-05-30T10:00:37.558Z,33.80
2017-05-30T10:03:05.789Z,33.80
2017-05-30T10:05:34.041Z,34.00
2017-05-30T10:08:02.277Z,33.90
2017-05-30T10:10:30.533Z,34.00
2017-05-30T10:12:58.780Z,34.30
2017-05-30T10:15:27.041Z,34.50
2017-05-30T10:17:58.911Z,35.00
2017-05-30T10:20:27.171Z,35.30
2017-05-30T10:22:55.414Z,35.90
2017-05-30T10:25:23.652Z,36.60
2017-05-30T10:27:51.902Z,37.10
2017-05-30T10:30:20.134Z,37.20
2017-05-30T10:32:48.386Z,37.10
2017-05-30T10:35:16.609Z,37.70
2017-05-30T10:37:44.850Z,38.10
2017-05-30T10:40:13.077Z,38.30
2017-05-30T10:42:41.315Z,38.80
2017-05-30T10:45:09.549Z,39.20
2017-05-30T10:47:37.778Z,39.00
2017-05-30T10:50:06.010Z,38.40
2017-05-30T10:52:34.314Z,37.90
2017-05-30T10:55:02.491Z,37.10
2017-05-30T10:57:30.730Z,35.80
2017-05-30T10:59:58.966Z,34.80
2017-05-30T11:02:27.209Z,33.30
2017-05-30T11:04:55.450Z,32.40
2017-05-30T11:07:23.672Z,32.00
2017-05-30T11:09:51.930Z,32.10
2017-05-30T11:12:20.168Z,31.40
2017-05-30T11:14:48.416Z,30.30
2017-05-30T11:17:20.007Z,29.20
2017-05-30T11:19:48.258Z,28.10
2017-05-30T11:22:16.488Z,27.20
2017-05-30T11:24:44.742Z,25.80
2017-05-30T11:27:12.990Z,24.60
2017-05-30T11:29:41.226Z,23.90
2017-05-30T11:32:09.467Z,23.50
2017-05-30T11:34:37.696Z,23.20
2017-05-30T11:37:05.937Z,23.00
2017-05-30T11:39:34.174Z,22.90
2017-05-30T11:42:01.662Z,22.90
2017-05-30T11:44:29.906Z,22.60
2017-05-30T11:46:58.152Z,22.50
2017-05-30T11:49:26.377Z,22.50
2017-05-30T11:51:54.617Z,22.60
2017-05-30T11:54:22.859Z,22.60
2017-05-30T11:56:51.122Z,22.60
2017-05-30T11:59:19.353Z,22.50
2017-05-30T12:01:47.582Z,22.00
2017-05-30T12:04:15.826Z,21.60
2017-05-30T12:06:44.066Z,21.60
2017-05-30T12:09:12.311Z,21.50
2017-05-30T12:11:40.550Z,21.40
2017-05-30T12:14:08.795Z,21.30
2017-05-30T12:16:37.022Z,21.10
2017-05-30T12:19:05.278Z,20.80
2017-05-30T12:21:33.515Z,20.70
2017-05-30T12:24:01.848Z,20.50
2017-05-30T12:26:30.002Z,20.40
2017-05-30T12:28:58.249Z,20.40
2017-05-30T12:31:26.482Z,20.50
2017-05-30T12:33:54.726Z,20.80
2017-05-30T12:36:22.954Z,20.80
2017-05-30T12:38:51.202Z,20.80
2017-05-30T12:41:19.442Z,20.90
2017-05-30T12:43:47.695Z,21.00
2017-05-30T12:46:15.921Z,21.10
2017-05-30T12:48:44.181Z,21.20
2017-05-30T12:51:12.419Z,21.30
2017-05-30T12:53:40.654Z,21.30
2017-05-30T12:56:08.898Z,21.30
2017-05-30T12:58:37.133Z,21.30
2017-05-30T13:01:05.378Z,21.40
2017-05-30T13:03:33.613Z,21.30
2017-05-30T13:06:01.876Z,21.20
2017-05-30T13:08:30.132Z,21.30
2017-05-30T13:10:58.391Z,21.50
2017-05-30T13:13:26.673Z,21.60
2017-05-30T13:15:54.943Z,21.70
2017-05-30T13:18:23.217Z,22.00
2017-05-30T13:20:51.467Z,22.10
2017-05-30T13:23:19.697Z,22.20
2017-05-30T13:25:47.948Z,22.20
2017-05-30T13:28:16.169Z,22.40
2017-05-30T13:30:44.397Z,22.50
2017-05-30T13:33:12.958Z,22.60
2017-05-30T13:35:41.198Z,22.80
2017-05-30T13:38:09.441Z,23.00
2017-05-30T13:40:37.679Z,23.50
2017-05-30T13:43:05.942Z,24.40
2017-05-30T13:45:34.187Z,25.20
2017-05-30T13:48:02.425Z,25.90
2017-05-30T13:50:30.654Z,26.30
2017-05-30T13:52:58.906Z,26.90
2017-05-30T13:55:27.142Z,27.30
2017-05-30T13:57:55.368Z,27.80
2017-05-30T14:00:23.610Z,27.60
2017-05-30T14:02:51.838Z,27.00
2017-05-30T14:05:20.078Z,26.40
2017-05-30T14:07:48.318Z,26.00
2017-05-30T14:10:16.557Z,25.60
2017-05-30T14:12:44.786Z,25.00
2017-05-30T14:15:13.025Z,24.50
2017-05-30T14:17:41.253Z,24.30
2017-05-30T14:20:09.495Z,24.00
2017-05-30T14:22:37.733Z,23.90
2017-05-30T14:25:05.957Z,23.80
2017-05-30T14:27:34.203Z,23.70
2017-05-30T14:30:02.452Z,23.80
2017-05-30T14:32:30.694Z,24.10
2017-05-30T14:34:58.925Z,24.50
2017-05-30T14:37:27.167Z,24.60
2017-05-30T14:39:55.393Z,24.50
2017-05-30T14:42:23.635Z,24.40
2017-05-30T14:44:51.853Z,25.00
2017-05-30T14:47:20.085Z,25.20
2017-05-30T14:49:48.336Z,25.00
2017-05-30T14:52:16.567Z,24.80
2017-05-30T14:54:44.810Z,24.80
2017-05-30T14:57:13.048Z,25.10
2017-05-30T14:59:41.294Z,25.40
2017-05-30T15:02:09.514Z,25.50
2017-05-30T15:04:37.754Z,25.40
2017-05-30T15:07:05.978Z,25.20
2017-05-30T15:09:34.217Z,25.30
2017-05-30T15:12:02.445Z,25.30
2017-05-30T15:14:30.678Z,24.50
2017-05-30T15:16:58.898Z,23.60
2017-05-30T15:19:27.125Z,22.80
2017-05-30T15:21:55.367Z,22.40
2017-05-30T15:24:23.609Z,21.90
2017-05-30T15:26:51.850Z,21.60
2017-05-30T15:29:20.078Z,21.30
2017-05-30T15:31:48.319Z,21.10
2017-05-30T15:34:16.547Z,21.00
2017-05-30T15:36:44.782Z,20.70
2017-05-30T15:39:13.010Z,20.60
2017-05-30T15:41:41.249Z,20.60
2017-05-30T15:44:09.489Z,20.60
2017-05-30T15:46:37.741Z,20.50
2017-05-30T15:49:05.962Z,20.40
2017-05-30T15:51:34.210Z,20.00
2017-05-30T15:54:02.446Z,20.10
2017-05-30T15:56:30.671Z,20.50
2017-05-30T15:58:58.913Z,21.20
2017-05-30T16:01:27.158Z,22.10
2017-05-30T16:03:55.388Z,22.80
2017-05-30T16:06:23.622Z,23.10
2017-05-30T16:08:51.858Z,22.90
2017-05-30T16:11:20.480Z,22.90
2017-05-30T16:13:48.725Z,23.30
2017-05-30T16:16:16.942Z,23.70
2017-05-30T16:18:45.174Z,23.70
2017-05-30T16:21:13.393Z,23.80
2017-05-30T16:23:41.662Z,24.10
2017-05-30T16:26:09.899Z,24.30
2017-05-30T16:28:38.143Z,24.60
2017-05-30T16:31:06.370Z,25.10
2017-05-30T16:33:34.587Z,25.40
2017-05-30T16:36:02.822Z,25.40
2017-05-30T16:38:31.052Z,25.20
2017-05-30T16:40:59.291Z,25.20
2017-05-30T16:43:27.508Z,25.20
2017-05-30T16:45:55.742Z,25.50
2017-05-30T16:48:23.969Z,25.80
2017-05-30T16:50:52.209Z,25.80
2017-05-30T16:53:20.429Z,25.80
2017-05-30T16:55:48.678Z,25.80
2017-05-30T16:58:16.905Z,25.40
2017-05-30T17:00:45.141Z,24.80
2017-05-30T17:03:13.369Z,24.60
2017-05-30T17:05:41.609Z,24.60
2017-05-30T17:08:09.837Z,24.60
2017-05-30T17:10:38.072Z,24.50
2017-05-30T17:13:06.307Z,24.40
2017-05-30T17:15:34.530Z,24.00
2017-05-30T17:18:06.089Z,23.70
2017-05-30T17:20:34.313Z,23.60
2017-05-30T17:23:02.549Z,23.50
2017-05-30T17:25:30.777Z,23.30
2017-05-30T17:27:59.018Z,23.20
2017-05-30T17:30:27.246Z,23.20
2017-05-30T17:32:55.477Z,23.00
2017-05-30T17:35:23.702Z,23.10
2017-05-30T17:37:51.949Z,23.30
2017-05-30T17:40:20.177Z,23.30
2017-05-30T17:42:48.422Z,23.20
2017-05-30T17:45:16.645Z,23.10
2017-05-30T17:47:44.873Z,23.10
2017-05-30T17:50:13.106Z,23.00
2017-05-30T17:52:41.322Z,23.00
2017-05-30T17:55:09.564Z,23.00
2017-05-30T17:57:37.794Z,22.90
2017-05-30T18:00:06.026Z,23.00
2017-05-30T18:02:34.246Z,23.00
2017-05-30T18:05:02.498Z,22.90
2017-05-30T18:07:30.718Z,22.90
2017-05-30T18:09:58.953Z,22.80
2017-05-30T18:12:27.194Z,22.80
2017-05-30T18:14:55.413Z,22.80
2017-05-30T18:17:23.660Z,22.80
2017-05-30T18:19:51.873Z,22.70
2017-05-30T18:22:20.102Z,22.70
2017-05-30T18:24:48.326Z,22.50
2017-05-30T18:27:16.577Z,22.30
2017-05-30T18:29:44.805Z,22.20
2017-05-30T18:32:13.022Z,22.10
2017-05-30T18:34:41.268Z,22.00
2017-05-30T18:37:09.497Z,21.70
2017-05-30T18:39:37.739Z,21.60
2017-05-30T18:42:05.961Z,21.60
2017-05-30T18:44:34.203Z,21.60
2017-05-30T18:47:02.417Z,21.50
2017-05-30T18:49:30.665Z,21.30
2017-05-30T18:51:58.887Z,21.10
2017-05-30T18:54:27.127Z,21.00
2017-05-30T18:56:55.349Z,20.90
2017-05-30T18:59:23.608Z,20.50
2017-05-30T19:01:51.830Z,20.10
2017-05-30T19:04:20.050Z,19.70
2017-05-30T19:06:48.282Z,19.70
2017-05-30T19:09:16.517Z,19.60
2017-05-30T19:11:44.742Z,19.40
2017-05-30T19:14:12.966Z,19.20
2017-05-30T19:16:41.210Z,19.00
2017-05-30T19:19:09.449Z,18.80
2017-05-30T19:21:37.687Z,18.60
2017-05-30T19:24:05.901Z,18.40
2017-05-30T19:26:34.154Z,18.30
2017-05-30T19:29:02.375Z,18.30
2017-05-30T19:31:30.596Z,18.60
2017-05-30T19:33:58.833Z,18.80
2017-05-30T19:36:27.061Z,19.00
2017-05-30T19:38:55.290Z,19.10
2017-05-30T19:41:23.510Z,19.30
2017-05-30T19:43:51.743Z,19.30
2017-05-30T19:46:19.969Z,19.30
2017-05-30T19:48:48.201Z,19.20
2017-05-30T19:51:16.449Z,19.10
2017-05-30T19:53:43.929Z,19.10
2017-05-30T19:56:12.162Z,19.00
2017-05-30T19:58:40.416Z,18.90
2017-05-30T20:01:08.650Z,18.80
2017-05-30T20:03:36.873Z,18.80
2017-05-30T20:06:05.122Z,18.80
2017-05-30T20:08:33.357Z,18.70
2017-05-30T20:11:01.593Z,18.70
2017-05-30T20:13:29.842Z,18.60
2017-05-30T20:15:58.086Z,18.60
2017-05-30T20:18:26.318Z,18.60
2017-05-30T20:20:54.561Z,18.50
2017-05-30T20:23:22.785Z,18.40
2017-05-30T20:25:51.033Z,18.40
2017-05-30T20:28:19.253Z,18.30
2017-05-30T20:30:47.493Z,18.30
2017-05-30T20:33:15.715Z,18.20
2017-05-30T20:35:43.958Z,18.20
2017-05-30T20:38:12.198Z,18.10
2017-05-30T20:40:40.417Z,18.10
2017-05-30T20:43:08.655Z,18.10
2017-05-30T20:45:36.889Z,18.10
2017-05-30T20:48:05.130Z,18.00
2017-05-30T20:50:33.359Z,17.90
2017-05-30T20:53:01.602Z,17.80
2017-05-30T20:55:29.830Z,17.80
2017-05-30T20:57:58.066Z,17.80
2017-05-30T21:00:26.306Z,17.80
2017-05-30T21:02:54.534Z,17.80
2017-05-30T21:05:22.758Z,17.80
2017-05-30T21:13:39.078Z,17.60
2017-05-30T21:22:17.465Z,17.60
2017-05-30T21:24:45.707Z,17.70
2017-05-30T21:27:13.942Z,17.70
2017-05-30T21:29:42.178Z,17.70
2017-05-30T21:32:10.402Z,17.70
2017-05-30T21:34:38.642Z,17.70
2017-05-30T21:37:07.701Z,17.70
2017-05-30T21:39:35.921Z,17.70
2017-05-30T21:42:04.162Z,17.70
2017-05-30T21:44:32.389Z,17.70
2017-05-30T21:47:00.626Z,17.70
2017-05-30T21:49:28.857Z,17.60
2017-05-30T21:51:57.101Z,17.60
2017-05-30T21:54:25.331Z,17.50
2017-05-30T21:56:53.565Z,17.40
2017-05-30T21:59:21.793Z,17.30
2017-05-30T22:01:50.025Z,17.30
2017-05-30T22:04:18.246Z,17.20
2017-05-30T22:06:46.499Z,17.20
2017-05-30T22:09:14.725Z,17.10
2017-05-30T22:11:42.949Z,17.10
2017-05-30T22:14:11.190Z,17.10
2017-05-30T22:16:39.419Z,17.00
2017-05-30T22:19:07.657Z,17.00
2017-05-30T22:21:35.886Z,16.90
2017-05-30T22:24:04.126Z,16.90
2017-05-30T22:26:32.341Z,16.90
2017-05-30T22:29:00.577Z,16.80
2017-05-30T22:31:28.806Z,16.80
2017-05-30T22:33:57.045Z,16.70
2017-05-30T22:36:25.266Z,16.60
2017-05-30T22:38:53.499Z,16.60
2017-05-30T22:41:21.729Z,16.60
2017-05-30T22:43:49.946Z,16.50
2017-05-30T22:46:18.177Z,16.50
2017-05-30T22:48:46.407Z,16.40
2017-05-30T22:51:14.652Z,16.40
2017-05-30T22:53:42.880Z,16.30
2017-05-30T22:56:11.113Z,16.40
2017-05-30T22:58:39.338Z,16.30
2017-05-30T23:01:07.574Z,16.30
2017-05-30T23:03:35.798Z,16.20
2017-05-30T23:06:04.049Z,16.20
2017-05-30T23:08:32.267Z,16.20
2017-05-30T23:11:00.489Z,16.10
2017-05-30T23:13:28.727Z,16.10
2017-05-30T23:16:02.789Z,16.00
2017-05-30T23:18:31.322Z,15.90
2017-05-30T23:20:59.542Z,15.90
2017-05-30T23:23:27.773Z,15.80
2017-05-30T23:26:09.076Z,15.80
2017-05-30T23:28:37.313Z,15.80
2017-05-30T23:31:05.529Z,15.70
2017-05-30T23:33:33.767Z,15.70
2017-05-30T23:36:01.997Z,15.60
2017-05-30T23:38:30.230Z,15.60
2017-05-30T23:40:58.442Z,15.40
2017-05-30T23:43:26.689Z,15.50
2017-05-30T23:45:54.901Z,15.40
2017-05-30T23:48:23.130Z,15.40
2017-05-30T23:50:51.349Z,15.40
2017-05-30T23:53:19.571Z,15.40
2017-05-30T23:55:47.801Z,15.40
2017-05-30T23:58:16.025Z,15.40
